Metheringham, United Kingdom
Current Conditions -  °F | °C
As of 1:50 PM on Friday 24 Oct 2014 (Local Time) from EGXW Reporting Station
Light Rain Light Rain  
Wind Chill: 59°   Ceiling: 2300
Heat Index: 59°   Visibility: 6mi
Dew Point: 55°   Wind: 9mph
Humidity: 88%   Direction: 250°WSW
Pressure: 29.85"   Gusts: NA
Location:  53.14°N, 0.4°W
Report Text: EGXW 241250Z 25008KT 9999 -RA FEW014 BKN023 BKN100 15/13 Q1011 WHT NOSIG
Loading
Personal Weather Stations






























Interactive Weather Map
Tropical Storm Tracking
New forecast layout! Learn more

10-Day Weather Forecast

Advertisements
Track Severe Weather on mobile